createdAt,value
2018-08-03T00:00:40.324Z,26.40
2018-08-03T00:03:09.063Z,26.40
2018-08-03T00:05:37.762Z,26.40
2018-08-03T00:08:06.827Z,26.40
2018-08-03T00:10:35.576Z,26.30
2018-08-03T00:13:04.374Z,26.20
2018-08-03T00:15:33.433Z,26.10
2018-08-03T00:18:02.427Z,26.10
2018-08-03T00:20:31.131Z,26.10
2018-08-03T00:23:00.131Z,26.10
2018-08-03T00:25:28.902Z,26.10
2018-08-03T00:27:57.630Z,26.10
2018-08-03T00:30:26.502Z,26.10
2018-08-03T00:32:55.215Z,26.10
2018-08-03T00:35:23.914Z,26.10
2018-08-03T00:37:52.735Z,26.10
2018-08-03T00:40:21.486Z,26.10
2018-08-03T00:42:50.239Z,26.10
2018-08-03T00:45:18.964Z,26.00
2018-08-03T00:47:47.714Z,26.00
2018-08-03T00:50:16.498Z,26.00
2018-08-03T00:52:45.239Z,26.00
2018-08-03T00:55:14.191Z,26.00
2018-08-03T00:57:43.074Z,25.90
2018-08-03T01:00:11.781Z,25.40
2018-08-03T01:02:40.538Z,25.00
2018-08-03T01:05:09.256Z,24.70
2018-08-03T01:07:38.009Z,24.60
2018-08-03T01:10:06.721Z,24.90
2018-08-03T01:12:35.473Z,25.10
2018-08-03T01:15:05.065Z,25.30
2018-08-03T01:20:02.307Z,25.40
2018-08-03T01:22:34.635Z,25.50
2018-08-03T01:25:03.823Z,25.50
2018-08-03T01:27:32.662Z,25.50
2018-08-03T01:30:01.418Z,25.50
2018-08-03T01:32:30.139Z,25.40
2018-08-03T01:34:59.110Z,25.00
2018-08-03T01:37:27.824Z,24.80
2018-08-03T01:39:56.508Z,24.60
2018-08-03T01:42:25.243Z,24.60
2018-08-03T01:44:53.946Z,24.70
2018-08-03T01:47:22.802Z,24.80
2018-08-03T01:52:19.933Z,25.10
2018-08-03T01:54:48.642Z,25.10
2018-08-03T01:59:45.862Z,25.10
2018-08-03T02:02:14.559Z,25.10
2018-08-03T02:04:43.354Z,25.10
2018-08-03T02:07:12.094Z,25.10
2018-08-03T02:12:09.313Z,25.20
2018-08-03T02:14:38.010Z,25.20
2018-08-03T02:17:06.726Z,25.20
2018-08-03T02:24:32.634Z,25.00
2018-08-03T02:27:01.421Z,25.10
2018-08-03T02:29:30.177Z,25.20
2018-08-03T02:31:58.873Z,25.20
2018-08-03T02:34:27.584Z,25.10
2018-08-03T02:36:56.297Z,25.20
2018-08-03T02:39:25.008Z,25.30
2018-08-03T02:46:50.638Z,25.30
2018-08-03T02:49:19.337Z,25.30
2018-08-03T02:51:48.347Z,25.20
2018-08-03T02:54:17.051Z,25.20
2018-08-03T02:56:45.755Z,25.10
2018-08-03T02:59:14.559Z,25.00
2018-08-03T03:01:43.290Z,25.00
2018-08-03T03:04:11.989Z,25.00
2018-08-03T03:06:40.711Z,25.00
2018-08-03T03:09:10.685Z,25.10
2018-08-03T03:14:07.914Z,25.10
2018-08-03T03:16:36.719Z,25.10
2018-08-03T03:19:05.438Z,25.20
2018-08-03T03:21:34.167Z,25.20
2018-08-03T03:24:02.862Z,25.20
2018-08-03T03:26:31.577Z,25.20
2018-08-03T03:29:00.412Z,25.30
2018-08-03T03:31:29.187Z,25.30
2018-08-03T03:33:57.931Z,25.30
2018-08-03T03:36:26.678Z,25.40
2018-08-03T03:38:55.390Z,25.40
2018-08-03T03:41:24.155Z,25.30
2018-08-03T03:43:53.107Z,25.30
2018-08-03T03:48:50.243Z,25.30
2018-08-03T03:51:19.047Z,25.30
2018-08-03T03:53:47.759Z,25.30
2018-08-03T03:58:44.975Z,25.10
2018-08-03T04:01:13.695Z,25.10
2018-08-03T04:03:42.402Z,25.20
2018-08-03T04:08:39.655Z,25.30
2018-08-03T04:11:08.386Z,25.40
2018-08-03T04:13:38.011Z,25.40
2018-08-03T04:16:06.818Z,25.50
2018-08-03T04:18:35.543Z,25.50
2018-08-03T04:23:32.783Z,25.60
2018-08-03T04:26:01.503Z,25.60
2018-08-03T04:30:58.647Z,25.30
2018-08-03T04:33:27.367Z,25.30
2018-08-03T04:35:56.099Z,25.20
2018-08-03T04:38:24.886Z,25.10
2018-08-03T04:40:53.619Z,24.90
2018-08-03T04:45:50.832Z,24.80
2018-08-03T04:48:19.688Z,25.00
2018-08-03T04:53:16.894Z,25.20
2018-08-03T04:55:45.623Z,25.20
2018-08-03T04:58:14.334Z,25.10
2018-08-03T05:00:43.195Z,24.80
2018-08-03T05:03:11.898Z,24.70
2018-08-03T05:08:09.331Z,24.70
2018-08-03T05:10:38.124Z,24.80
2018-08-03T05:13:06.834Z,24.70
2018-08-03T05:15:35.788Z,24.90
2018-08-03T05:18:04.474Z,25.10
2018-08-03T05:20:33.202Z,25.20
2018-08-03T05:23:01.948Z,25.20
2018-08-03T05:25:30.648Z,25.10
2018-08-03T05:27:59.716Z,25.30
2018-08-03T05:30:28.478Z,25.20
2018-08-03T05:32:57.198Z,25.20
2018-08-03T05:35:25.934Z,25.30
2018-08-03T05:37:54.691Z,25.40
2018-08-03T05:40:23.418Z,25.50
2018-08-03T05:45:20.647Z,25.60
2018-08-03T05:50:24.634Z,25.70
2018-08-03T05:52:53.410Z,25.70
2018-08-03T05:57:51.014Z,25.80
2018-08-03T06:00:19.818Z,25.90
2018-08-03T06:02:49.055Z,26.00
2018-08-03T06:05:18.123Z,26.00
2018-08-03T06:07:46.935Z,26.00
2018-08-03T06:10:15.708Z,26.00
2018-08-03T06:12:44.427Z,26.00
2018-08-03T06:15:13.218Z,26.00
2018-08-03T06:17:41.926Z,26.10
2018-08-03T06:20:12.132Z,26.10
2018-08-03T06:22:41.225Z,26.00
2018-08-03T06:27:39.022Z,26.00
2018-08-03T06:32:38.109Z,26.10
2018-08-03T06:35:06.922Z,26.20
2018-08-03T06:40:04.426Z,26.20
2018-08-03T06:42:33.301Z,26.20
2018-08-03T06:45:02.091Z,26.10
2018-08-03T06:47:30.986Z,26.20
2018-08-03T06:49:59.912Z,26.20
2018-08-03T06:52:28.755Z,26.20
2018-08-03T06:57:26.284Z,26.20
2018-08-03T06:59:55.178Z,26.20
2018-08-03T07:02:24.014Z,26.20
2018-08-03T07:04:52.947Z,26.20
2018-08-03T07:07:21.917Z,26.20
2018-08-03T07:09:50.811Z,26.20
2018-08-03T07:12:19.771Z,26.20
2018-08-03T07:14:48.759Z,26.20
2018-08-03T07:17:17.646Z,26.20
2018-08-03T07:19:46.577Z,26.20
2018-08-03T07:22:15.532Z,26.30
2018-08-03T07:24:44.442Z,26.30
2018-08-03T07:29:41.797Z,26.30
2018-08-03T07:32:10.624Z,26.30
2018-08-03T07:34:39.502Z,26.40
2018-08-03T07:37:08.459Z,26.30
2018-08-03T07:39:37.372Z,26.40
2018-08-03T07:44:35.337Z,26.50
2018-08-03T07:47:04.159Z,26.50
2018-08-03T07:52:01.648Z,26.60
2018-08-03T07:54:30.538Z,26.60
2018-08-03T07:59:28.002Z,26.70
2018-08-03T08:04:25.375Z,26.70
2018-08-03T08:06:54.290Z,26.70
2018-08-03T08:09:23.176Z,26.70
2018-08-03T08:11:52.150Z,26.70
2018-08-03T08:16:49.597Z,26.80
2018-08-03T08:19:18.484Z,26.80
2018-08-03T08:21:47.386Z,26.90
2018-08-03T08:24:16.252Z,26.90
2018-08-03T08:26:45.300Z,26.90
2018-08-03T08:29:14.199Z,26.90
2018-08-03T08:31:43.286Z,27.00
2018-08-03T08:34:12.107Z,27.00
2018-08-03T08:36:40.924Z,27.00
2018-08-03T08:39:12.368Z,27.10
2018-08-03T08:41:42.375Z,27.10
2018-08-03T08:44:12.131Z,27.10
2018-08-03T08:46:41.399Z,27.10
2018-08-03T08:49:10.336Z,27.10
2018-08-03T08:51:39.187Z,27.10
2018-08-03T08:54:08.020Z,27.10
2018-08-03T08:56:36.922Z,27.20
2018-08-03T08:59:05.804Z,27.20
2018-08-03T09:01:34.735Z,27.20
2018-08-03T09:04:03.619Z,27.20
2018-08-03T09:06:32.467Z,27.20
2018-08-03T09:09:01.362Z,27.30
2018-08-03T09:11:30.300Z,27.30
2018-08-03T09:13:59.756Z,27.40
2018-08-03T09:16:29.796Z,27.40
2018-08-03T09:18:58.855Z,27.40
2018-08-03T09:21:27.635Z,27.40
2018-08-03T09:23:56.643Z,27.50
2018-08-03T09:26:25.547Z,27.50
2018-08-03T09:28:54.451Z,27.50
2018-08-03T09:31:30.090Z,27.60
2018-08-03T09:33:58.895Z,27.60
2018-08-03T09:36:27.946Z,27.60
2018-08-03T09:38:56.828Z,27.60
2018-08-03T09:41:25.904Z,27.70
2018-08-03T09:43:54.872Z,27.70
2018-08-03T09:46:23.855Z,27.70
2018-08-03T09:48:52.903Z,27.70
2018-08-03T09:51:21.763Z,27.80
2018-08-03T09:53:50.724Z,27.80
2018-08-03T09:58:48.394Z,27.80
2018-08-03T10:01:17.406Z,27.80
2018-08-03T10:03:46.291Z,27.80
2018-08-03T10:06:15.286Z,27.90
2018-08-03T10:08:44.474Z,27.80
2018-08-03T10:11:13.550Z,27.90
2018-08-03T10:13:42.781Z,27.90
2018-08-03T10:16:11.794Z,27.90
2018-08-03T10:18:40.666Z,28.00
2018-08-03T10:23:38.135Z,28.00
2018-08-03T10:28:35.534Z,28.00
2018-08-03T10:31:08.127Z,28.00
2018-08-03T10:33:37.026Z,28.10
2018-08-03T10:36:05.979Z,28.10
2018-08-03T10:38:34.867Z,28.10
2018-08-03T10:41:03.784Z,28.20
2018-08-03T10:43:32.696Z,28.20
2018-08-03T10:46:01.640Z,28.20
2018-08-03T10:48:31.177Z,28.30
2018-08-03T10:51:00.084Z,28.30
2018-08-03T10:53:28.985Z,28.30
2018-08-03T10:55:57.878Z,28.30
2018-08-03T10:58:26.869Z,28.30
2018-08-03T11:00:55.827Z,28.30
2018-08-03T11:03:25.095Z,28.40
2018-08-03T11:05:54.004Z,28.40
2018-08-03T11:08:22.851Z,28.40
2018-08-03T11:10:51.869Z,28.40
2018-08-03T11:13:20.704Z,28.40
2018-08-03T11:15:49.685Z,28.40
2018-08-03T11:18:18.578Z,28.40
2018-08-03T11:20:47.463Z,28.40
2018-08-03T11:23:16.257Z,28.40
2018-08-03T11:25:45.198Z,28.50
2018-08-03T11:28:14.094Z,28.50
2018-08-03T11:30:43.079Z,28.40
2018-08-03T11:33:11.911Z,28.50
2018-08-03T11:35:40.757Z,28.50
2018-08-03T11:38:09.645Z,28.50
2018-08-03T11:40:40.059Z,28.50
2018-08-03T11:43:08.953Z,28.60
2018-08-03T11:45:37.758Z,28.60
2018-08-03T11:48:06.943Z,28.60
2018-08-03T11:50:35.841Z,28.60
2018-08-03T11:53:05.607Z,28.60
2018-08-03T11:55:34.530Z,28.60
2018-08-03T11:58:03.463Z,28.70
2018-08-03T12:00:32.284Z,28.70
2018-08-03T12:03:01.167Z,28.80
2018-08-03T12:05:30.915Z,28.80
2018-08-03T12:08:00.291Z,28.80
2018-08-03T12:10:29.288Z,28.80
2018-08-03T12:12:58.192Z,28.80
2018-08-03T12:15:28.188Z,28.80
2018-08-03T12:17:57.027Z,28.80
2018-08-03T12:20:25.892Z,28.90
2018-08-03T12:22:54.758Z,28.90
2018-08-03T12:25:23.638Z,28.90
2018-08-03T12:30:21.179Z,28.90
2018-08-03T12:32:50.117Z,29.00
2018-08-03T12:35:18.930Z,29.10
2018-08-03T12:37:47.906Z,29.10
2018-08-03T12:40:16.762Z,29.20
2018-08-03T12:42:45.694Z,29.20
2018-08-03T12:45:14.648Z,29.20
2018-08-03T12:47:43.556Z,29.20
2018-08-03T12:50:12.471Z,29.20
2018-08-03T12:52:41.517Z,29.20
2018-08-03T12:55:10.383Z,29.20
2018-08-03T12:57:39.248Z,29.20
2018-08-03T13:00:08.664Z,29.20
2018-08-03T13:02:37.596Z,29.20
2018-08-03T13:05:07.078Z,29.20
2018-08-03T13:07:35.970Z,29.20
2018-08-03T13:10:05.136Z,29.30
2018-08-03T13:12:34.255Z,29.30
2018-08-03T13:15:03.128Z,29.30
2018-08-03T13:17:32.145Z,29.30
2018-08-03T13:20:00.992Z,29.30
2018-08-03T13:24:58.467Z,29.40
2018-08-03T13:27:27.507Z,29.40
2018-08-03T13:29:57.191Z,29.40
2018-08-03T13:32:26.121Z,29.40
2018-08-03T13:34:55.008Z,29.40
2018-08-03T13:37:23.959Z,29.40
2018-08-03T13:39:52.809Z,29.40
2018-08-03T13:42:21.691Z,29.50
2018-08-03T13:44:50.608Z,29.50
2018-08-03T13:49:51.015Z,29.50
2018-08-03T13:52:19.858Z,29.50
2018-08-03T13:57:17.434Z,29.50
2018-08-03T13:59:46.360Z,29.60
2018-08-03T15:24:17.584Z,29.70
2018-08-03T15:26:46.449Z,29.40
2018-08-03T15:29:15.428Z,29.50
2018-08-03T15:31:44.362Z,29.70
2018-08-03T15:34:13.364Z,29.80
2018-08-03T15:36:42.567Z,29.90
2018-08-03T15:39:11.723Z,30.00
2018-08-03T15:41:40.809Z,30.00
2018-08-03T15:44:09.637Z,30.10
2018-08-03T15:46:38.555Z,30.10
2018-08-03T15:49:07.486Z,30.20
2018-08-03T15:51:36.386Z,30.20
2018-08-03T15:54:05.333Z,30.20
2018-08-03T15:56:34.275Z,30.20
2018-08-03T15:59:03.152Z,30.30
2018-08-03T16:01:31.994Z,30.30
2018-08-03T16:04:01.280Z,30.30
2018-08-03T16:06:30.192Z,30.30
2018-08-03T16:08:59.173Z,30.40
2018-08-03T16:11:28.055Z,30.40
2018-08-03T16:13:57.288Z,30.40
2018-08-03T16:16:26.231Z,30.50
2018-08-03T16:18:55.176Z,30.50
2018-08-03T16:21:23.953Z,30.50
2018-08-03T16:23:52.837Z,30.60
2018-08-03T16:26:21.719Z,30.60
2018-08-03T16:28:50.866Z,30.60
2018-08-03T16:31:19.764Z,30.60
2018-08-03T16:33:48.645Z,30.70
2018-08-03T16:36:17.576Z,30.70
2018-08-03T16:38:46.469Z,30.70
2018-08-03T16:41:15.535Z,30.80
2018-08-03T16:43:44.580Z,30.80
2018-08-03T16:46:13.428Z,30.80
2018-08-03T16:48:42.354Z,30.90
2018-08-03T16:51:11.195Z,31.00
2018-08-03T16:53:40.070Z,31.00
2018-08-03T16:56:08.918Z,31.00
2018-08-03T16:58:37.774Z,31.00
2018-08-03T17:01:06.719Z,31.00
2018-08-03T17:03:35.586Z,31.10
2018-08-03T17:06:04.424Z,31.10
2018-08-03T17:11:01.932Z,31.20
2018-08-03T17:13:30.804Z,31.30
2018-08-03T17:15:59.656Z,31.30
2018-08-03T17:18:28.591Z,31.30
2018-08-03T17:20:57.523Z,31.30
2018-08-03T17:23:26.371Z,31.30
2018-08-03T17:25:55.174Z,31.40
2018-08-03T17:28:23.988Z,31.80
2018-08-03T17:30:53.177Z,31.80
2018-08-03T17:33:22.052Z,31.70
2018-08-03T17:35:50.816Z,31.50
2018-08-03T17:43:22.528Z,31.70
2018-08-03T17:45:51.378Z,32.10
2018-08-03T17:48:20.244Z,32.30
2018-08-03T17:50:49.109Z,32.30
2018-08-03T17:53:17.994Z,32.10
2018-08-03T17:55:46.976Z,31.80
2018-08-03T17:58:15.914Z,31.60
2018-08-03T18:00:44.858Z,31.40
2018-08-03T18:03:13.796Z,31.30
2018-08-03T18:05:43.566Z,31.30
2018-08-03T18:08:12.459Z,31.20
2018-08-03T18:10:42.084Z,31.20
2018-08-03T18:13:10.961Z,31.10
2018-08-03T18:15:39.808Z,31.00
2018-08-03T18:18:08.792Z,30.90
2018-08-03T18:20:37.735Z,30.80
2018-08-03T18:23:06.644Z,30.70
2018-08-03T18:25:35.499Z,30.70
2018-08-03T18:28:04.452Z,30.60
2018-08-03T18:30:33.346Z,30.60
2018-08-03T18:33:02.188Z,30.50
2018-08-03T18:35:31.084Z,30.40
2018-08-03T18:37:59.962Z,30.40
2018-08-03T18:40:28.922Z,30.30
2018-08-03T18:42:57.763Z,30.30
2018-08-03T18:45:26.674Z,30.20
2018-08-03T18:47:55.586Z,30.20
2018-08-03T18:50:24.423Z,30.20
2018-08-03T18:55:22.026Z,30.10
2018-08-03T18:57:50.955Z,30.00
2018-08-03T19:00:19.800Z,30.00
2018-08-03T19:02:48.729Z,30.00
2018-08-03T19:05:17.727Z,29.90
2018-08-03T19:07:46.660Z,29.90
2018-08-03T19:12:44.043Z,29.80
2018-08-03T19:15:12.944Z,29.80
2018-08-03T19:17:41.876Z,29.80
2018-08-03T19:20:10.763Z,29.70
2018-08-03T19:22:39.548Z,29.70
2018-08-03T19:25:08.601Z,29.70
2018-08-03T19:32:34.999Z,29.50
2018-08-03T19:35:03.727Z,29.50
2018-08-03T19:37:32.819Z,29.50
2018-08-03T19:40:01.513Z,29.40
2018-08-03T19:42:30.231Z,29.40
2018-08-03T19:44:59.004Z,29.30
2018-08-03T19:47:27.722Z,29.30
2018-08-03T19:49:56.558Z,29.30
2018-08-03T19:52:25.347Z,29.20
2018-08-03T19:54:54.159Z,29.20
2018-08-03T19:59:51.452Z,29.10
2018-08-03T20:02:20.279Z,29.10
2018-08-03T20:04:48.999Z,29.10
2018-08-03T20:09:46.442Z,29.00
2018-08-03T20:12:15.151Z,29.00
2018-08-03T20:14:43.927Z,28.90
2018-08-03T20:17:12.743Z,28.90
2018-08-03T20:22:14.235Z,28.80
2018-08-03T20:24:43.007Z,28.80
2018-08-03T20:29:40.247Z,28.70
2018-08-03T20:32:08.977Z,28.70
2018-08-03T20:34:38.170Z,28.70
2018-08-03T20:37:06.916Z,28.70
2018-08-03T20:39:35.686Z,28.70
2018-08-03T20:42:04.556Z,28.70
2018-08-03T20:44:33.263Z,28.60
2018-08-03T20:47:01.995Z,28.60
2018-08-03T20:49:30.751Z,28.60
2018-08-03T20:51:59.522Z,28.60
2018-08-03T20:54:28.217Z,28.50
2018-08-03T20:56:56.927Z,28.50
2018-08-03T20:59:25.960Z,28.50
2018-08-03T21:01:54.692Z,28.50
2018-08-03T21:04:23.415Z,28.50
2018-08-03T21:06:53.070Z,28.40
2018-08-03T21:09:21.879Z,28.50
2018-08-03T21:11:50.685Z,28.40
2018-08-03T21:14:19.442Z,28.40
2018-08-03T21:16:48.155Z,28.40
2018-08-03T21:19:16.891Z,28.40
2018-08-03T21:21:45.626Z,28.30
2018-08-03T21:24:14.563Z,28.30
2018-08-03T21:26:43.579Z,28.30
2018-08-03T21:29:12.318Z,28.30
2018-08-03T21:31:41.095Z,28.20
2018-08-03T21:34:09.839Z,28.10
2018-08-03T21:36:38.546Z,28.00
2018-08-03T21:39:08.737Z,28.00
2018-08-03T21:41:37.619Z,28.10
2018-08-03T21:44:06.411Z,28.10
2018-08-03T21:46:35.140Z,28.10
2018-08-03T21:49:03.966Z,28.10
2018-08-03T21:51:33.496Z,28.10
2018-08-03T21:54:02.470Z,28.10
2018-08-03T21:58:59.661Z,28.10
2018-08-03T22:01:28.386Z,28.00
2018-08-03T22:03:57.147Z,28.00
2018-08-03T22:06:25.976Z,28.00
2018-08-03T22:08:54.710Z,27.90
2018-08-03T22:11:23.978Z,27.90
2018-08-03T22:13:52.678Z,27.90
2018-08-03T22:16:21.431Z,27.90
2018-08-03T22:18:50.229Z,27.80
2018-08-03T22:21:18.941Z,27.80
2018-08-03T22:25:12.220Z,27.70
2018-08-03T22:27:40.950Z,27.70
2018-08-03T22:30:09.683Z,27.70
2018-08-03T22:32:38.500Z,27.70
2018-08-03T22:35:07.107Z,27.60
2018-08-03T22:37:35.938Z,27.60
2018-08-03T22:40:04.666Z,27.60
2018-08-03T22:42:33.359Z,27.70
2018-08-03T22:45:02.082Z,27.70
2018-08-03T22:47:30.794Z,27.70
2018-08-03T22:49:59.554Z,27.70
2018-08-03T22:52:28.250Z,27.70
2018-08-03T22:54:57.035Z,27.60
2018-08-03T22:57:25.784Z,27.60
2018-08-03T22:59:54.502Z,27.60
2018-08-03T23:02:23.319Z,27.60
2018-08-03T23:04:52.031Z,27.60
2018-08-03T23:07:20.763Z,27.60
2018-08-03T23:09:50.689Z,27.60
2018-08-03T23:12:19.395Z,27.60
2018-08-03T23:14:48.318Z,27.60
2018-08-03T23:17:17.102Z,27.60
2018-08-03T23:19:45.817Z,27.60
2018-08-03T23:22:14.891Z,27.50
2018-08-03T23:24:43.630Z,27.40
2018-08-03T23:27:12.427Z,27.40
2018-08-03T23:29:41.454Z,27.40
2018-08-03T23:34:38.671Z,27.40
2018-08-03T23:37:07.404Z,27.50
2018-08-03T23:42:04.619Z,27.40
2018-08-03T23:44:33.300Z,27.30
2018-08-03T23:47:02.010Z,27.30
2018-08-03T23:49:30.805Z,27.30
2018-08-03T23:51:59.520Z,27.30
2018-08-03T23:56:57.534Z,27.20
